CheckWX is a tool to help pilots better visualize weather data.  It is not intended as a substitute for an official pre-flight weather briefing.

14:42:36 UTC

ESMT METAR
Halmstad Airport
Halmstad, Sweden
Current

23 mins ago

ESMT 201420Z 19005KT 9999 FEW027 21/15 Q1008
Observed
May-20 @ 14:20 UTC
Wind
  • 190° at 5 KTS
Visibility
10,000+ meters
Flight Rules
VFR
Cloud Levels
  • Few at 2,700' AGL
Temperature
21°C / 70°F
Dewpoint
15°C / 59°F
Humidity
69%
Altimeter
29.76" Hg
Pressure
1007.92 hPa
Previous

53 mins ago

ESMT 201350Z 18006KT 140V210 9999 FEW027 20/16 Q1008
Observed
May-20 @ 13:50 UTC
Wind
  • 180° at 6 KTS
Visibility
10,000+ meters
Flight Rules
VFR
Cloud Levels
  • Few at 2,700' AGL
Temperature
20°C / 68°F
Dewpoint
16°C / 61°F
Humidity
78%
Altimeter
29.76" Hg
Pressure
1007.92 hPa
Previous

1 hour ago

ESMT 201320Z 20005KT 170V230 9999 FEW025 SCT029 20/15 Q1008
Observed
May-20 @ 13:20 UTC
Wind
  • 200° at 5 KTS
Visibility
10,000+ meters
Flight Rules
VFR
Cloud Levels
  • Few at 2,500' AGL
  • Scattered at 2,900' AGL
Temperature
20°C / 68°F
Dewpoint
15°C / 59°F
Humidity
73%
Altimeter
29.76" Hg
Pressure
1007.92 hPa